sensor_id;sensor_type;location;lat;lon;timestamp;pressure;altitude;pressure_sealevel;temperature;humidity
46682;BME280;34101;53.430;-2.224;2023-11-19T00:02:09;99725.10;;;13.15;72.09
46682;BME280;34101;53.430;-2.224;2023-11-19T00:04:37;99728.80;;;13.23;71.67
46682;BME280;34101;53.430;-2.224;2023-11-19T00:07:04;99723.10;;;12.99;71.89
46682;BME280;34101;53.430;-2.224;2023-11-19T00:09:32;99725.76;;;13.31;71.28
46682;BME280;34101;53.430;-2.224;2023-11-19T00:12:00;99724.95;;;12.77;72.70
46682;BME280;34101;53.430;-2.224;2023-11-19T00:14:27;99725.14;;;13.17;71.93
46682;BME280;34101;53.430;-2.224;2023-11-19T00:16:55;99721.27;;;13.22;71.52
46682;BME280;34101;53.430;-2.224;2023-11-19T00:19:22;99723.24;;;13.11;71.45
46682;BME280;34101;53.430;-2.224;2023-11-19T00:21:50;99712.94;;;12.92;71.90
46682;BME280;34101;53.430;-2.224;2023-11-19T00:24:18;99714.11;;;13.02;71.97
46682;BME280;34101;53.430;-2.224;2023-11-19T00:26:45;99712.61;;;13.02;71.95
46682;BME280;34101;53.430;-2.224;2023-11-19T00:29:12;99718.88;;;12.78;72.42
46682;BME280;34101;53.430;-2.224;2023-11-19T00:31:40;99715.90;;;12.91;71.74
46682;BME280;34101;53.430;-2.224;2023-11-19T00:34:07;99715.62;;;12.98;72.11
46682;BME280;34101;53.430;-2.224;2023-11-19T00:36:35;99716.69;;;12.69;72.43
46682;BME280;34101;53.430;-2.224;2023-11-19T00:39:03;99710.53;;;12.74;72.46
46682;BME280;34101;53.430;-2.224;2023-11-19T00:41:30;99712.51;;;12.78;72.49
46682;BME280;34101;53.430;-2.224;2023-11-19T00:43:58;99715.87;;;12.66;72.67
46682;BME280;34101;53.430;-2.224;2023-11-19T00:46:25;99717.22;;;13.10;71.70
46682;BME280;34101;53.430;-2.224;2023-11-19T00:48:52;99715.15;;;13.24;71.16
46682;BME280;34101;53.430;-2.224;2023-11-19T00:51:20;99714.71;;;13.17;71.11
46682;BME280;34101;53.430;-2.224;2023-11-19T00:53:47;99712.85;;;13.26;70.59
46682;BME280;34101;53.430;-2.224;2023-11-19T00:56:14;99711.99;;;12.91;71.58
46682;BME280;34101;53.430;-2.224;2023-11-19T00:58:42;99712.23;;;12.99;71.77
46682;BME280;34101;53.430;-2.224;2023-11-19T01:01:11;99710.18;;;13.22;70.91
46682;BME280;34101;53.430;-2.224;2023-11-19T01:03:39;99709.42;;;13.21;71.07
46682;BME280;34101;53.430;-2.224;2023-11-19T01:06:07;99706.30;;;13.29;71.04
46682;BME280;34101;53.430;-2.224;2023-11-19T01:08:34;99702.48;;;13.19;71.75
46682;BME280;34101;53.430;-2.224;2023-11-19T01:11:02;99703.20;;;13.26;71.69
46682;BME280;34101;53.430;-2.224;2023-11-19T01:13:29;99699.97;;;13.24;72.17
46682;BME280;34101;53.430;-2.224;2023-11-19T01:15:57;99699.25;;;13.08;72.79
46682;BME280;34101;53.430;-2.224;2023-11-19T01:18:24;99701.94;;;12.87;73.30
46682;BME280;34101;53.430;-2.224;2023-11-19T01:20:52;99699.42;;;12.68;73.98
46682;BME280;34101;53.430;-2.224;2023-11-19T01:23:19;99697.77;;;12.83;73.98
46682;BME280;34101;53.430;-2.224;2023-11-19T01:25:47;99696.48;;;12.68;74.66
46682;BME280;34101;53.430;-2.224;2023-11-19T01:28:14;99689.70;;;12.95;73.50
46682;BME280;34101;53.430;-2.224;2023-11-19T01:30:41;99692.02;;;12.92;73.29
46682;BME280;34101;53.430;-2.224;2023-11-19T01:33:09;99690.83;;;12.96;73.25
46682;BME280;34101;53.430;-2.224;2023-11-19T01:35:37;99689.34;;;12.98;73.44
46682;BME280;34101;53.430;-2.224;2023-11-19T01:38:04;99688.60;;;12.79;74.53
46682;BME280;34101;53.430;-2.224;2023-11-19T01:40:32;99685.98;;;12.71;75.11
46682;BME280;34101;53.430;-2.224;2023-11-19T01:42:59;99687.24;;;12.73;75.08
46682;BME280;34101;53.430;-2.224;2023-11-19T01:45:29;99695.80;;;12.93;74.89
46682;BME280;34101;53.430;-2.224;2023-11-19T01:47:57;99684.33;;;12.85;75.39
46682;BME280;34101;53.430;-2.224;2023-11-19T01:50:25;99681.37;;;12.82;76.19
46682;BME280;34101;53.430;-2.224;2023-11-19T01:52:53;99681.86;;;12.70;76.43
46682;BME280;34101;53.430;-2.224;2023-11-19T01:55:22;99685.46;;;12.63;77.08
46682;BME280;34101;53.430;-2.224;2023-11-19T01:57:53;99681.57;;;12.53;77.32
46682;BME280;34101;53.430;-2.224;2023-11-19T02:00:24;99678.98;;;12.59;77.58
46682;BME280;34101;53.430;-2.224;2023-11-19T02:02:52;99680.12;;;12.51;77.44
46682;BME280;34101;53.430;-2.224;2023-11-19T02:05:20;99671.95;;;12.52;77.75
46682;BME280;34101;53.430;-2.224;2023-11-19T02:07:48;99676.76;;;12.57;77.05
46682;BME280;34101;53.430;-2.224;2023-11-19T02:10:16;99677.39;;;12.74;77.15
46682;BME280;34101;53.430;-2.224;2023-11-19T02:12:43;99671.68;;;12.48;77.20
46682;BME280;34101;53.430;-2.224;2023-11-19T02:15:11;99670.84;;;12.18;78.30
46682;BME280;34101;53.430;-2.224;2023-11-19T02:17:38;99676.66;;;12.40;77.76
46682;BME280;34101;53.430;-2.224;2023-11-19T02:20:07;99681.21;;;12.44;77.65
46682;BME280;34101;53.430;-2.224;2023-11-19T02:22:35;99681.25;;;12.37;77.35
46682;BME280;34101;53.430;-2.224;2023-11-19T02:25:06;99683.27;;;12.38;77.71
46682;BME280;34101;53.430;-2.224;2023-11-19T02:27:47;99681.35;;;12.44;76.90
46682;BME280;34101;53.430;-2.224;2023-11-19T02:30:18;99672.34;;;12.64;76.12
46682;BME280;34101;53.430;-2.224;2023-11-19T02:32:46;99674.47;;;12.66;75.28
46682;BME280;34101;53.430;-2.224;2023-11-19T02:35:14;99675.46;;;12.44;76.19
46682;BME280;34101;53.430;-2.224;2023-11-19T02:37:42;99667.90;;;12.49;75.92
46682;BME280;34101;53.430;-2.224;2023-11-19T02:40:10;99666.59;;;12.50;75.30
46682;BME280;34101;53.430;-2.224;2023-11-19T02:42:37;99665.12;;;12.16;76.51
46682;BME280;34101;53.430;-2.224;2023-11-19T02:45:05;99658.82;;;12.51;75.81
46682;BME280;34101;53.430;-2.224;2023-11-19T02:47:38;99663.16;;;12.25;76.44
46682;BME280;34101;53.430;-2.224;2023-11-19T02:50:06;99661.13;;;12.69;75.47
46682;BME280;34101;53.430;-2.224;2023-11-19T02:52:33;99671.67;;;12.48;75.88
46682;BME280;34101;53.430;-2.224;2023-11-19T02:55:01;99673.04;;;12.63;76.23
46682;BME280;34101;53.430;-2.224;2023-11-19T02:57:31;99667.53;;;12.03;78.20
46682;BME280;34101;53.430;-2.224;2023-11-19T02:59:58;99662.52;;;12.39;77.54
46682;BME280;34101;53.430;-2.224;2023-11-19T03:02:31;99656.42;;;12.33;77.66
46682;BME280;34101;53.430;-2.224;2023-11-19T03:04:58;99653.92;;;12.44;77.39
46682;BME280;34101;53.430;-2.224;2023-11-19T03:07:26;99650.65;;;12.27;78.27
46682;BME280;34101;53.430;-2.224;2023-11-19T03:09:53;99648.80;;;12.38;77.65
46682;BME280;34101;53.430;-2.224;2023-11-19T03:12:21;99649.38;;;12.43;77.96
46682;BME280;34101;53.430;-2.224;2023-11-19T03:14:55;99650.19;;;12.72;76.82
46682;BME280;34101;53.430;-2.224;2023-11-19T03:17:22;99645.10;;;12.68;76.63
46682;BME280;34101;53.430;-2.224;2023-11-19T03:19:50;99640.60;;;12.69;76.77
46682;BME280;34101;53.430;-2.224;2023-11-19T03:22:19;99639.52;;;12.38;77.48
46682;BME280;34101;53.430;-2.224;2023-11-19T03:24:46;99633.98;;;12.29;77.76
46682;BME280;34101;53.430;-2.224;2023-11-19T03:27:14;99637.26;;;12.19;77.92
46682;BME280;34101;53.430;-2.224;2023-11-19T03:29:41;99633.97;;;11.98;79.03
46682;BME280;34101;53.430;-2.224;2023-11-19T03:32:09;99639.30;;;12.24;77.92
46682;BME280;34101;53.430;-2.224;2023-11-19T03:34:36;99635.19;;;12.17;78.41
46682;BME280;34101;53.430;-2.224;2023-11-19T03:37:04;99630.61;;;11.99;78.98
46682;BME280;34101;53.430;-2.224;2023-11-19T03:39:31;99628.03;;;11.89;79.63
46682;BME280;34101;53.430;-2.224;2023-11-19T03:41:59;99627.20;;;11.82;79.72
46682;BME280;34101;53.430;-2.224;2023-11-19T03:44:32;99625.44;;;11.60;80.55
46682;BME280;34101;53.430;-2.224;2023-11-19T03:47:00;99633.60;;;11.94;79.78
46682;BME280;34101;53.430;-2.224;2023-11-19T03:49:27;99635.81;;;12.09;79.03
46682;BME280;34101;53.430;-2.224;2023-11-19T03:51:54;99634.90;;;11.97;78.82
46682;BME280;34101;53.430;-2.224;2023-11-19T03:54:22;99635.92;;;12.04;78.57
46682;BME280;34101;53.430;-2.224;2023-11-19T03:56:49;99638.33;;;12.24;77.75
46682;BME280;34101;53.430;-2.224;2023-11-19T03:59:16;99639.03;;;12.26;77.91
46682;BME280;34101;53.430;-2.224;2023-11-19T04:01:44;99644.67;;;12.43;77.07
46682;BME280;34101;53.430;-2.224;2023-11-19T04:04:11;99640.57;;;12.13;77.95
46682;BME280;34101;53.430;-2.224;2023-11-19T04:06:39;99639.23;;;12.24;77.68
46682;BME280;34101;53.430;-2.224;2023-11-19T04:09:06;99644.93;;;12.40;77.53
46682;BME280;34101;53.430;-2.224;2023-11-19T04:11:35;99638.69;;;12.25;77.93
46682;BME280;34101;53.430;-2.224;2023-11-19T04:14:03;99644.66;;;12.53;77.17
46682;BME280;34101;53.430;-2.224;2023-11-19T04:16:32;99644.81;;;11.90;79.01
46682;BME280;34101;53.430;-2.224;2023-11-19T04:19:00;99647.14;;;12.20;78.14
46682;BME280;34101;53.430;-2.224;2023-11-19T04:21:27;99644.03;;;12.30;78.15
46682;BME280;34101;53.430;-2.224;2023-11-19T04:23:55;99640.48;;;12.51;76.21
46682;BME280;34101;53.430;-2.224;2023-11-19T04:26:22;99633.41;;;12.56;76.38
46682;BME280;34101;53.430;-2.224;2023-11-19T04:28:50;99633.73;;;12.52;75.78
46682;BME280;34101;53.430;-2.224;2023-11-19T04:31:18;99635.94;;;12.44;76.67
46682;BME280;34101;53.430;-2.224;2023-11-19T04:33:45;99629.79;;;12.45;75.85
46682;BME280;34101;53.430;-2.224;2023-11-19T04:36:19;99629.67;;;12.61;75.07
46682;BME280;34101;53.430;-2.224;2023-11-19T04:38:47;99623.44;;;12.38;75.91
46682;BME280;34101;53.430;-2.224;2023-11-19T04:41:15;99620.50;;;12.51;75.36
46682;BME280;34101;53.430;-2.224;2023-11-19T04:43:42;99630.17;;;12.48;75.12
46682;BME280;34101;53.430;-2.224;2023-11-19T04:46:10;99623.59;;;12.36;75.07
46682;BME280;34101;53.430;-2.224;2023-11-19T04:48:37;99626.04;;;12.20;75.58
46682;BME280;34101;53.430;-2.224;2023-11-19T04:51:06;99625.61;;;12.67;73.77
46682;BME280;34101;53.430;-2.224;2023-11-19T04:53:33;99629.58;;;12.41;74.62
46682;BME280;34101;53.430;-2.224;2023-11-19T04:56:01;99630.63;;;12.68;73.76
46682;BME280;34101;53.430;-2.224;2023-11-19T04:58:34;99625.51;;;12.57;73.93
46682;BME280;34101;53.430;-2.224;2023-11-19T05:01:03;99621.24;;;12.67;73.72
46682;BME280;34101;53.430;-2.224;2023-11-19T05:03:31;99621.80;;;12.54;74.02
46682;BME280;34101;53.430;-2.224;2023-11-19T05:05:59;99616.73;;;12.48;74.15
46682;BME280;34101;53.430;-2.224;2023-11-19T05:08:26;99627.56;;;12.54;74.31
46682;BME280;34101;53.430;-2.224;2023-11-19T05:10:55;99628.03;;;12.88;73.41
46682;BME280;34101;53.430;-2.224;2023-11-19T05:13:23;99629.60;;;12.43;74.61
46682;BME280;34101;53.430;-2.224;2023-11-19T05:15:51;99625.94;;;12.37;74.70
46682;BME280;34101;53.430;-2.224;2023-11-19T05:18:19;99626.19;;;12.61;74.70
46682;BME280;34101;53.430;-2.224;2023-11-19T05:20:47;99626.61;;;12.62;73.91
46682;BME280;34101;53.430;-2.224;2023-11-19T05:23:15;99621.68;;;12.76;73.43
46682;BME280;34101;53.430;-2.224;2023-11-19T05:25:43;99620.96;;;12.45;74.69
46682;BME280;34101;53.430;-2.224;2023-11-19T05:28:10;99620.04;;;12.53;74.62
46682;BME280;34101;53.430;-2.224;2023-11-19T05:30:38;99614.89;;;12.35;74.77
46682;BME280;34101;53.430;-2.224;2023-11-19T05:33:07;99615.60;;;12.41;74.90
46682;BME280;34101;53.430;-2.224;2023-11-19T05:35:34;99615.81;;;12.72;73.55
46682;BME280;34101;53.430;-2.224;2023-11-19T05:38:03;99615.71;;;12.69;73.87
46682;BME280;34101;53.430;-2.224;2023-11-19T05:40:31;99615.99;;;12.74;73.76
46682;BME280;34101;53.430;-2.224;2023-11-19T05:42:58;99621.00;;;12.60;74.38
46682;BME280;34101;53.430;-2.224;2023-11-19T05:45:26;99618.66;;;12.71;74.09
46682;BME280;34101;53.430;-2.224;2023-11-19T05:47:53;99614.15;;;12.80;74.13
46682;BME280;34101;53.430;-2.224;2023-11-19T05:50:21;99611.13;;;12.72;74.21
46682;BME280;34101;53.430;-2.224;2023-11-19T05:52:48;99613.16;;;12.31;75.86
46682;BME280;34101;53.430;-2.224;2023-11-19T05:55:16;99611.45;;;12.73;74.21
46682;BME280;34101;53.430;-2.224;2023-11-19T05:57:44;99606.72;;;12.31;75.66
46682;BME280;34101;53.430;-2.224;2023-11-19T06:00:12;99602.53;;;11.97;77.70
46682;BME280;34101;53.430;-2.224;2023-11-19T06:02:40;99605.83;;;12.08;77.43
46682;BME280;34101;53.430;-2.224;2023-11-19T06:05:09;99610.34;;;11.92;78.27
46682;BME280;34101;53.430;-2.224;2023-11-19T06:07:37;99609.79;;;11.83;79.09
46682;BME280;34101;53.430;-2.224;2023-11-19T06:10:07;99611.64;;;12.26;77.52
46682;BME280;34101;53.430;-2.224;2023-11-19T06:12:35;99609.96;;;12.27;77.57
46682;BME280;34101;53.430;-2.224;2023-11-19T06:15:04;99614.65;;;12.23;78.25
46682;BME280;34101;53.430;-2.224;2023-11-19T06:17:31;99613.43;;;12.50;77.27
46682;BME280;34101;53.430;-2.224;2023-11-19T06:20:00;99610.82;;;12.28;77.94
46682;BME280;34101;53.430;-2.224;2023-11-19T06:22:28;99610.20;;;12.38;77.91
46682;BME280;34101;53.430;-2.224;2023-11-19T06:24:56;99609.37;;;12.36;77.72
46682;BME280;34101;53.430;-2.224;2023-11-19T06:27:24;99605.79;;;12.24;78.31
46682;BME280;34101;53.430;-2.224;2023-11-19T06:29:52;99605.95;;;12.28;78.13
46682;BME280;34101;53.430;-2.224;2023-11-19T06:32:19;99613.08;;;12.25;78.59
46682;BME280;34101;53.430;-2.224;2023-11-19T06:34:47;99610.05;;;12.09;79.38
46682;BME280;34101;53.430;-2.224;2023-11-19T06:37:16;99610.62;;;12.09;79.77
46682;BME280;34101;53.430;-2.224;2023-11-19T06:39:44;99607.35;;;11.93;80.07
46682;BME280;34101;53.430;-2.224;2023-11-19T06:42:12;99607.62;;;12.03;80.14
46682;BME280;34101;53.430;-2.224;2023-11-19T06:44:39;99613.75;;;12.40;78.28
46682;BME280;34101;53.430;-2.224;2023-11-19T06:47:08;99609.82;;;12.41;78.34
46682;BME280;34101;53.430;-2.224;2023-11-19T06:49:36;99613.59;;;12.53;77.31
46682;BME280;34101;53.430;-2.224;2023-11-19T06:52:04;99619.45;;;12.16;78.48
46682;BME280;34101;53.430;-2.224;2023-11-19T06:54:32;99617.85;;;12.13;79.12
46682;BME280;34101;53.430;-2.224;2023-11-19T06:57:00;99618.62;;;12.29;79.09
46682;BME280;34101;53.430;-2.224;2023-11-19T06:59:28;99610.69;;;12.42;78.58
46682;BME280;34101;53.430;-2.224;2023-11-19T07:01:56;99612.55;;;12.41;78.47
46682;BME280;34101;53.430;-2.224;2023-11-19T07:04:24;99614.60;;;12.19;79.07
46682;BME280;34101;53.430;-2.224;2023-11-19T07:06:51;99614.55;;;12.33;79.28
46682;BME280;34101;53.430;-2.224;2023-11-19T07:09:18;99615.25;;;12.55;78.24
46682;BME280;34101;53.430;-2.224;2023-11-19T07:11:46;99615.67;;;12.55;77.88
46682;BME280;34101;53.430;-2.224;2023-11-19T07:14:14;99618.86;;;12.49;78.23
46682;BME280;34101;53.430;-2.224;2023-11-19T07:16:43;99612.01;;;12.37;78.74
46682;BME280;34101;53.430;-2.224;2023-11-19T07:19:10;99614.30;;;12.55;78.48
46682;BME280;34101;53.430;-2.224;2023-11-19T07:21:41;99621.87;;;12.32;79.05
46682;BME280;34101;53.430;-2.224;2023-11-19T07:24:09;99610.69;;;12.52;78.51
46682;BME280;34101;53.430;-2.224;2023-11-19T07:26:42;99614.07;;;12.55;78.60
46682;BME280;34101;53.430;-2.224;2023-11-19T07:29:09;99618.02;;;12.58;78.12
46682;BME280;34101;53.430;-2.224;2023-11-19T07:31:37;99613.40;;;12.12;80.00
46682;BME280;34101;53.430;-2.224;2023-11-19T07:34:04;99613.40;;;12.31;79.54
46682;BME280;34101;53.430;-2.224;2023-11-19T07:36:33;99612.29;;;12.49;79.21
46682;BME280;34101;53.430;-2.224;2023-11-19T07:39:00;99608.85;;;12.49;78.94
46682;BME280;34101;53.430;-2.224;2023-11-19T07:41:27;99598.82;;;12.67;78.46
46682;BME280;34101;53.430;-2.224;2023-11-19T07:43:55;99605.00;;;12.60;78.59
46682;BME280;34101;53.430;-2.224;2023-11-19T07:46:23;99606.54;;;12.61;78.28
46682;BME280;34101;53.430;-2.224;2023-11-19T07:48:51;99612.85;;;12.41;79.27
46682;BME280;34101;53.430;-2.224;2023-11-19T07:51:19;99608.22;;;12.46;78.98
46682;BME280;34101;53.430;-2.224;2023-11-19T07:53:46;99611.96;;;12.27;80.56
46682;BME280;34101;53.430;-2.224;2023-11-19T07:56:14;99616.43;;;12.19;80.42
46682;BME280;34101;53.430;-2.224;2023-11-19T07:58:42;99612.47;;;12.20;80.60
46682;BME280;34101;53.430;-2.224;2023-11-19T08:01:09;99622.04;;;12.30;80.65
46682;BME280;34101;53.430;-2.224;2023-11-19T08:03:37;99616.37;;;12.08;81.56
46682;BME280;34101;53.430;-2.224;2023-11-19T08:06:05;99619.36;;;12.04;81.91
46682;BME280;34101;53.430;-2.224;2023-11-19T08:08:33;99622.91;;;12.23;81.22
46682;BME280;34101;53.430;-2.224;2023-11-19T08:11:01;99616.05;;;12.00;82.44
46682;BME280;34101;53.430;-2.224;2023-11-19T08:13:29;99613.57;;;11.99;82.56
46682;BME280;34101;53.430;-2.224;2023-11-19T08:15:56;99612.18;;;12.14;81.88
46682;BME280;34101;53.430;-2.224;2023-11-19T08:18:23;99614.97;;;12.05;82.75
46682;BME280;34101;53.430;-2.224;2023-11-19T08:20:51;99610.68;;;12.38;81.35
46682;BME280;34101;53.430;-2.224;2023-11-19T08:23:19;99608.69;;;12.54;80.47
46682;BME280;34101;53.430;-2.224;2023-11-19T08:25:46;99610.58;;;12.56;80.59
46682;BME280;34101;53.430;-2.224;2023-11-19T08:28:14;99614.52;;;12.39;81.16
46682;BME280;34101;53.430;-2.224;2023-11-19T08:30:41;99611.41;;;12.57;80.26
46682;BME280;34101;53.430;-2.224;2023-11-19T08:33:09;99612.92;;;12.54;80.30
46682;BME280;34101;53.430;-2.224;2023-11-19T08:35:36;99612.99;;;12.59;80.61
46682;BME280;34101;53.430;-2.224;2023-11-19T08:38:04;99613.13;;;12.50;81.00
46682;BME280;34101;53.430;-2.224;2023-11-19T08:40:31;99615.16;;;12.72;80.24
46682;BME280;34101;53.430;-2.224;2023-11-19T08:42:59;99612.45;;;12.69;79.83
46682;BME280;34101;53.430;-2.224;2023-11-19T08:45:26;99616.54;;;12.43;80.63
46682;BME280;34101;53.430;-2.224;2023-11-19T08:47:54;99612.49;;;12.73;80.22
46682;BME280;34101;53.430;-2.224;2023-11-19T08:50:23;99616.08;;;12.72;80.23
46682;BME280;34101;53.430;-2.224;2023-11-19T08:52:50;99615.40;;;12.87;79.82
46682;BME280;34101;53.430;-2.224;2023-11-19T08:55:18;99615.41;;;12.88;79.48
46682;BME280;34101;53.430;-2.224;2023-11-19T08:57:45;99615.45;;;12.62;80.59
46682;BME280;34101;53.430;-2.224;2023-11-19T09:00:13;99614.94;;;12.38;81.10
46682;BME280;34101;53.430;-2.224;2023-11-19T09:02:41;99606.76;;;12.74;80.44
46682;BME280;34101;53.430;-2.224;2023-11-19T09:05:08;99612.51;;;12.81;79.99
46682;BME280;34101;53.430;-2.224;2023-11-19T09:07:37;99605.04;;;12.90;79.62
46682;BME280;34101;53.430;-2.224;2023-11-19T09:10:05;99603.29;;;12.67;79.83
46682;BME280;34101;53.430;-2.224;2023-11-19T09:12:33;99606.60;;;12.81;79.86
46682;BME280;34101;53.430;-2.224;2023-11-19T09:15:00;99608.25;;;12.70;79.91
46682;BME280;34101;53.430;-2.224;2023-11-19T09:17:27;99604.82;;;12.55;80.42
46682;BME280;34101;53.430;-2.224;2023-11-19T09:19:56;99609.23;;;12.85;79.86
46682;BME280;34101;53.430;-2.224;2023-11-19T09:22:23;99605.62;;;12.92;79.61
46682;BME280;34101;53.430;-2.224;2023-11-19T09:24:51;99609.87;;;12.70;79.69
46682;BME280;34101;53.430;-2.224;2023-11-19T09:27:19;99603.54;;;12.73;80.14
46682;BME280;34101;53.430;-2.224;2023-11-19T09:29:46;99605.73;;;12.66;80.76
46682;BME280;34101;53.430;-2.224;2023-11-19T09:32:13;99604.59;;;12.57;81.05
46682;BME280;34101;53.430;-2.224;2023-11-19T09:34:41;99600.22;;;12.57;81.81
46682;BME280;34101;53.430;-2.224;2023-11-19T09:37:08;99603.64;;;12.58;81.77
46682;BME280;34101;53.430;-2.224;2023-11-19T09:39:36;99603.97;;;12.01;84.94
46682;BME280;34101;53.430;-2.224;2023-11-19T09:42:04;99600.54;;;12.32;83.59
46682;BME280;34101;53.430;-2.224;2023-11-19T09:44:32;99599.93;;;12.50;82.93
46682;BME280;34101;53.430;-2.224;2023-11-19T09:47:00;99600.90;;;12.55;82.98
46682;BME280;34101;53.430;-2.224;2023-11-19T09:49:27;99598.70;;;12.67;82.45
46682;BME280;34101;53.430;-2.224;2023-11-19T09:51:54;99598.96;;;12.52;83.25
46682;BME280;34101;53.430;-2.224;2023-11-19T09:54:22;99597.11;;;12.58;82.95
46682;BME280;34101;53.430;-2.224;2023-11-19T09:56:50;99599.95;;;12.31;84.20
46682;BME280;34101;53.430;-2.224;2023-11-19T09:59:18;99598.98;;;12.38;84.27
46682;BME280;34101;53.430;-2.224;2023-11-19T10:01:47;99598.37;;;12.25;85.17
46682;BME280;34101;53.430;-2.224;2023-11-19T10:04:15;99595.52;;;12.45;84.32
46682;BME280;34101;53.430;-2.224;2023-11-19T10:06:43;99593.30;;;12.54;84.17
46682;BME280;34101;53.430;-2.224;2023-11-19T10:09:12;99591.88;;;12.36;84.77
46682;BME280;34101;53.430;-2.224;2023-11-19T10:11:40;99591.79;;;12.54;84.39
46682;BME280;34101;53.430;-2.224;2023-11-19T10:14:09;99589.45;;;12.34;85.47
46682;BME280;34101;53.430;-2.224;2023-11-19T10:16:38;99588.13;;;12.36;85.85
46682;BME280;34101;53.430;-2.224;2023-11-19T10:19:07;99584.80;;;12.50;85.34
46682;BME280;34101;53.430;-2.224;2023-11-19T10:21:34;99583.01;;;12.46;85.02
46682;BME280;34101;53.430;-2.224;2023-11-19T10:24:03;99583.27;;;12.51;84.96
46682;BME280;34101;53.430;-2.224;2023-11-19T10:26:31;99583.36;;;12.64;84.92
46682;BME280;34101;53.430;-2.224;2023-11-19T10:28:58;99585.08;;;12.56;85.40
46682;BME280;34101;53.430;-2.224;2023-11-19T10:31:26;99583.34;;;12.64;85.10
46682;BME280;34101;53.430;-2.224;2023-11-19T10:33:53;99575.38;;;12.74;85.02
46682;BME280;34101;53.430;-2.224;2023-11-19T10:36:21;99576.34;;;12.66;85.01
46682;BME280;34101;53.430;-2.224;2023-11-19T10:38:53;99578.80;;;12.31;86.40
46682;BME280;34101;53.430;-2.224;2023-11-19T10:41:30;99573.74;;;12.31;86.67
46682;BME280;34101;53.430;-2.224;2023-11-19T10:43:57;99569.95;;;12.71;85.58
46682;BME280;34101;53.430;-2.224;2023-11-19T10:46:38;99567.65;;;12.41;85.75
46682;BME280;34101;53.430;-2.224;2023-11-19T10:49:05;99569.24;;;12.48;86.35
46682;BME280;34101;53.430;-2.224;2023-11-19T10:51:33;99555.70;;;12.71;85.08
46682;BME280;34101;53.430;-2.224;2023-11-19T10:54:04;99549.97;;;12.48;86.03
46682;BME280;34101;53.430;-2.224;2023-11-19T10:56:32;99551.80;;;12.30;86.67
46682;BME280;34101;53.430;-2.224;2023-11-19T10:59:00;99547.49;;;12.58;86.35
46682;BME280;34101;53.430;-2.224;2023-11-19T11:01:34;99546.09;;;12.40;86.82
46682;BME280;34101;53.430;-2.224;2023-11-19T11:04:11;99543.50;;;12.06;88.26
46682;BME280;34101;53.430;-2.224;2023-11-19T11:06:41;99542.95;;;12.18;87.68
46682;BME280;34101;53.430;-2.224;2023-11-19T11:09:09;99547.77;;;12.25;88.14
46682;BME280;34101;53.430;-2.224;2023-11-19T11:11:39;99547.72;;;12.43;87.43
46682;BME280;34101;53.430;-2.224;2023-11-19T11:14:08;99547.32;;;12.73;86.44
46682;BME280;34101;53.430;-2.224;2023-11-19T11:16:44;99546.61;;;12.68;86.43
46682;BME280;34101;53.430;-2.224;2023-11-19T11:19:13;99545.66;;;12.78;86.22
46682;BME280;34101;53.430;-2.224;2023-11-19T11:21:45;99543.75;;;12.42;87.34
46682;BME280;34101;53.430;-2.224;2023-11-19T11:24:29;99549.32;;;12.21;88.44
46682;BME280;34101;53.430;-2.224;2023-11-19T11:28:23;99548.31;;;12.43;88.30
46682;BME280;34101;53.430;-2.224;2023-11-19T11:31:08;99541.44;;;12.44;87.63
46682;BME280;34101;53.430;-2.224;2023-11-19T11:33:56;99542.07;;;12.69;87.46
46682;BME280;34101;53.430;-2.224;2023-11-19T11:36:27;99540.77;;;12.68;87.16
46682;BME280;34101;53.430;-2.224;2023-11-19T11:38:58;99529.96;;;12.59;87.72
46682;BME280;34101;53.430;-2.224;2023-11-19T11:41:27;99537.31;;;12.82;87.69
46682;BME280;34101;53.430;-2.224;2023-11-19T11:43:55;99530.66;;;12.76;87.53
46682;BME280;34101;53.430;-2.224;2023-11-19T11:46:55;99529.29;;;12.81;87.87
46682;BME280;34101;53.430;-2.224;2023-11-19T11:49:26;99526.37;;;12.79;88.33
46682;BME280;34101;53.430;-2.224;2023-11-19T11:51:59;99522.99;;;12.87;87.47
46682;BME280;34101;53.430;-2.224;2023-11-19T11:54:29;99519.16;;;12.86;88.26
46682;BME280;34101;53.430;-2.224;2023-11-19T11:57:10;99520.36;;;13.15;86.96
46682;BME280;34101;53.430;-2.224;2023-11-19T11:59:48;99519.55;;;12.96;87.80
46682;BME280;34101;53.430;-2.224;2023-11-19T12:02:17;99516.84;;;13.06;87.60
46682;BME280;34101;53.430;-2.224;2023-11-19T12:04:51;99516.64;;;13.12;87.18
46682;BME280;34101;53.430;-2.224;2023-11-19T12:07:21;99511.35;;;12.89;87.11
46682;BME280;34101;53.430;-2.224;2023-11-19T12:09:52;99514.66;;;13.02;87.19
46682;BME280;34101;53.430;-2.224;2023-11-19T12:12:23;99519.59;;;12.92;88.54
46682;BME280;34101;53.430;-2.224;2023-11-19T12:15:07;99525.03;;;13.07;88.10
46682;BME280;34101;53.430;-2.224;2023-11-19T12:17:43;99525.62;;;12.88;88.23
46682;BME280;34101;53.430;-2.224;2023-11-19T12:20:11;99524.77;;;13.04;88.52
46682;BME280;34101;53.430;-2.224;2023-11-19T12:22:39;99522.73;;;12.75;90.00
46682;BME280;34101;53.430;-2.224;2023-11-19T12:25:09;99525.18;;;12.83;89.36
46682;BME280;34101;53.430;-2.224;2023-11-19T12:27:39;99524.80;;;13.16;88.69
46682;BME280;34101;53.430;-2.224;2023-11-19T12:30:08;99524.95;;;12.91;88.83
46682;BME280;34101;53.430;-2.224;2023-11-19T12:32:44;99519.26;;;13.24;88.37
46682;BME280;34101;53.430;-2.224;2023-11-19T12:35:12;99518.95;;;13.30;88.18
46682;BME280;34101;53.430;-2.224;2023-11-19T12:37:43;99521.12;;;13.19;88.75
46682;BME280;34101;53.430;-2.224;2023-11-19T12:40:20;99524.55;;;13.16;87.90
46682;BME280;34101;53.430;-2.224;2023-11-19T12:42:48;99522.03;;;12.99;89.00
46682;BME280;34101;53.430;-2.224;2023-11-19T12:45:21;99518.28;;;13.23;89.09
46682;BME280;34101;53.430;-2.224;2023-11-19T12:47:50;99520.84;;;13.41;88.41
46682;BME280;34101;53.430;-2.224;2023-11-19T12:50:17;99525.36;;;13.05;90.05
46682;BME280;34101;53.430;-2.224;2023-11-19T12:52:56;99518.41;;;13.43;88.37
46682;BME280;34101;53.430;-2.224;2023-11-19T12:55:26;99520.30;;;13.55;88.58
46682;BME280;34101;53.430;-2.224;2023-11-19T12:57:55;99519.62;;;13.40;88.74
46682;BME280;34101;53.430;-2.224;2023-11-19T13:00:26;99523.40;;;13.23;89.73